createdAt,value
2017-12-15T08:43:24.298Z,5.56
2017-12-15T08:44:24.243Z,5.47
2017-12-15T08:45:23.961Z,5.59
2017-12-15T08:46:24.209Z,5.54
2017-12-15T08:47:23.941Z,5.54
2017-12-15T08:48:24.986Z,5.61
2017-12-15T08:49:23.909Z,5.64
2017-12-15T08:50:24.173Z,5.64
2017-12-15T08:51:23.638Z,5.57
2017-12-15T08:52:23.887Z,5.72
2017-12-15T08:53:24.124Z,5.66
2017-12-15T08:54:24.119Z,5.71
2017-12-15T08:55:24.118Z,5.71
2017-12-15T08:56:24.129Z,5.75
2017-12-15T08:57:24.092Z,5.86
2017-12-15T08:58:24.333Z,5.79
2017-12-15T08:59:23.824Z,5.87
2017-12-15T09:00:24.075Z,5.87
2017-12-15T09:01:23.808Z,5.84
2017-12-15T09:02:24.054Z,5.84
2017-12-15T09:03:24.036Z,5.93
2017-12-15T09:04:24.033Z,5.97
2017-12-15T09:05:24.028Z,5.93
2017-12-15T09:06:23.767Z,5.86
2017-12-15T09:07:24.016Z,5.87
2017-12-15T09:08:23.764Z,5.89
2017-12-15T09:09:23.745Z,5.98
2017-12-15T09:10:24.004Z,6.02
2017-12-15T09:11:24.010Z,6.05
2017-12-15T09:12:23.989Z,6.12
2017-12-15T09:13:23.719Z,6.16
2017-12-15T09:14:23.715Z,6.14
2017-12-15T09:15:23.715Z,6.26
2017-12-15T09:16:23.951Z,6.42
2017-12-15T09:17:23.987Z,6.2
2017-12-15T09:18:24.003Z,6.35
2017-12-15T09:19:23.940Z,6.31
2017-12-15T09:20:23.690Z,6.3
2017-12-15T09:21:23.667Z,6.36
2017-12-15T09:22:23.919Z,6.31
2017-12-15T09:23:23.664Z,6.33
2017-12-15T09:24:23.652Z,6.41
2017-12-15T09:25:23.919Z,6.48
2017-12-15T09:26:23.902Z,6.42
2017-12-15T09:27:23.895Z,6.52
2017-12-15T09:28:23.631Z,6.51
2017-12-15T09:29:23.887Z,6.6
2017-12-15T09:30:23.887Z,6.59
2017-12-15T09:31:23.609Z,6.64
2017-12-15T09:32:23.871Z,6.69
2017-12-15T09:33:23.852Z,6.74
2017-12-15T09:34:23.596Z,6.75
2017-12-15T09:35:23.893Z,6.64
2017-12-15T09:36:23.855Z,6.69
2017-12-15T09:37:23.832Z,6.75
2017-12-15T09:38:23.831Z,6.77
2017-12-15T09:39:23.835Z,6.69
2017-12-15T09:40:24.041Z,6.84
2017-12-15T09:41:23.823Z,6.75
2017-12-15T09:42:23.810Z,6.84
2017-12-15T09:43:23.859Z,6.74
2017-12-15T09:44:23.825Z,6.77
2017-12-15T09:45:23.818Z,6.89
2017-12-15T09:46:23.789Z,6.87
2017-12-15T09:47:23.795Z,6.99
2017-12-15T09:48:23.849Z,6.88
2017-12-15T09:49:23.782Z,6.96
2017-12-15T09:50:23.547Z,6.88
2017-12-15T09:51:23.887Z,6.88
2017-12-15T09:52:23.769Z,6.96
2017-12-15T09:53:23.759Z,6.87
2017-12-15T09:54:23.761Z,7.03
2017-12-15T09:55:23.513Z,7.11
2017-12-15T09:56:23.502Z,7.02
2017-12-15T09:57:23.753Z,7.03
2017-12-15T09:58:24.199Z,7.11
2017-12-15T09:59:23.492Z,7.14
2017-12-15T10:00:23.495Z,7.15
2017-12-15T10:01:23.725Z,7.25
2017-12-15T10:02:23.730Z,7.23
2017-12-15T10:03:23.769Z,7.31
2017-12-15T10:04:23.466Z,7.39
2017-12-15T10:05:23.717Z,7.39
2017-12-15T10:06:23.708Z,7.5
2017-12-15T10:07:23.732Z,7.48
2017-12-15T10:08:23.456Z,7.6
2017-12-15T10:09:23.709Z,7.69
2017-12-15T10:10:23.696Z,7.73
2017-12-15T10:11:23.445Z,7.73
2017-12-15T10:12:23.437Z,7.69
2017-12-15T10:13:23.736Z,7.73
2017-12-15T10:14:23.671Z,7.76
2017-12-15T10:15:23.670Z,7.72
2017-12-15T10:16:23.673Z,7.67
2017-12-15T10:17:23.663Z,7.73
2017-12-15T10:18:23.413Z,7.7
2017-12-15T10:19:23.418Z,7.73
2017-12-15T10:20:23.442Z,7.67
2017-12-15T10:21:23.660Z,7.75
2017-12-15T10:22:23.658Z,7.8
2017-12-15T10:52:57.103Z,7.77
2017-12-15T10:53:57.095Z,7.79
2017-12-15T10:54:57.098Z,7.73
2017-12-15T10:55:57.087Z,7.6
2017-12-15T10:56:57.339Z,7.57
2017-12-15T10:57:57.324Z,7.58
2017-12-15T10:58:57.304Z,7.54
2017-12-15T10:59:57.302Z,7.66
2017-12-15T11:00:56.779Z,7.57
2017-12-15T11:01:57.024Z,7.6
2017-12-15T11:02:57.282Z,7.61
2017-12-15T11:03:57.016Z,7.56
2017-12-15T11:04:57.275Z,7.61
2017-12-15T11:05:57.306Z,7.58
2017-12-15T11:06:57.289Z,7.58
2017-12-15T11:07:57.607Z,7.73
2017-12-15T11:08:57.240Z,7.73
2017-12-15T11:09:56.975Z,7.7
2017-12-15T11:10:57.225Z,7.73
2017-12-15T11:11:56.970Z,7.82
2017-12-15T11:12:56.965Z,7.94
2017-12-15T11:13:57.217Z,7.91
2017-12-15T11:14:56.954Z,7.87
2017-12-15T11:15:56.947Z,7.87
2017-12-15T11:16:57.204Z,7.9
2017-12-15T11:17:57.205Z,7.88
2017-12-15T11:18:56.687Z,7.97
2017-12-15T11:19:56.677Z,7.94
2017-12-15T11:20:56.926Z,7.94
2017-12-15T11:21:57.192Z,7.88
2017-12-15T11:22:57.170Z,7.95
2017-12-15T11:23:56.911Z,7.95
2017-12-15T11:24:57.166Z,7.98
2017-12-15T11:25:56.901Z,8.05
2017-12-15T11:26:57.149Z,8
2017-12-15T11:27:56.896Z,8.01
2017-12-15T11:28:57.143Z,8
2017-12-15T11:29:57.142Z,8.01
2017-12-15T11:30:56.888Z,8.05
2017-12-15T11:31:57.148Z,7.91
2017-12-15T11:32:57.146Z,8.01
2017-12-15T11:33:57.154Z,8.09
2017-12-15T11:34:57.128Z,8.03
2017-12-15T11:35:56.878Z,8.06
2017-12-15T11:36:56.867Z,8.06
2017-12-15T11:37:57.383Z,8.15
2017-12-15T11:38:57.111Z,8.1
2017-12-15T11:39:56.857Z,8.23
2017-12-15T11:40:57.118Z,8.19
2017-12-15T11:41:56.847Z,8.19
2017-12-15T11:42:56.847Z,8.19
2017-12-15T11:43:56.583Z,8.06
2017-12-15T11:44:57.089Z,8.16
2017-12-15T11:45:56.852Z,8.19
2017-12-15T11:46:57.084Z,8.23
2017-12-15T11:47:56.835Z,8.18
2017-12-15T11:48:56.821Z,8.3
2017-12-15T11:49:57.070Z,8.2
2017-12-15T11:50:57.073Z,8.3
2017-12-15T11:51:57.068Z,8.26
2017-12-15T11:52:57.857Z,8.31
2017-12-15T11:53:57.123Z,8.24
2017-12-15T11:54:56.813Z,8.19
2017-12-15T11:55:57.047Z,8.2
2017-12-15T11:56:56.853Z,8.2
2017-12-15T11:57:56.794Z,8.27
2017-12-15T11:58:57.037Z,8.16
2017-12-15T11:59:57.032Z,8.16
2017-12-15T12:00:56.777Z,8.19
2017-12-15T12:01:57.027Z,8.19
2017-12-15T12:02:57.022Z,8.12
2017-12-15T12:03:57.020Z,8.16
2017-12-15T12:04:57.020Z,8.16
2017-12-15T12:05:56.771Z,8.16
2017-12-15T12:06:56.770Z,8.15
2017-12-15T12:07:58.074Z,8.19
2017-12-15T12:08:56.999Z,8.2
2017-12-15T12:09:57.001Z,8.31
2017-12-15T12:10:56.738Z,8.31
2017-12-15T12:11:56.490Z,8.27
2017-12-15T12:12:56.738Z,8.24
2017-12-15T12:13:56.733Z,8.27
2017-12-15T12:14:56.980Z,8.13
2017-12-15T12:15:56.978Z,8.15
2017-12-15T12:16:56.721Z,8.16
2017-12-15T12:17:56.991Z,8.15
2017-12-15T12:18:56.971Z,8.13
2017-12-15T12:19:56.967Z,8.2
2017-12-15T12:20:56.963Z,8.15
2017-12-15T12:21:56.708Z,8.18
2017-12-15T12:22:56.699Z,8.16
2017-12-15T12:23:56.948Z,8.13
2017-12-15T12:24:56.698Z,8.16
2017-12-15T12:25:56.699Z,8.13
2017-12-15T12:26:56.436Z,8.16
2017-12-15T12:27:56.955Z,8.01
2017-12-15T12:28:56.932Z,7.98
2017-12-15T12:29:56.929Z,8.12
2017-12-15T12:30:56.435Z,8.08
2017-12-15T12:31:56.922Z,8.08
2017-12-15T12:32:56.921Z,8.06
2017-12-15T12:33:56.668Z,8.08
2017-12-15T12:34:56.656Z,7.95
2017-12-15T12:35:56.912Z,7.98
2017-12-15T12:36:56.905Z,8.01
2017-12-15T12:37:58.016Z,8.05
2017-12-15T12:38:56.651Z,7.98
2017-12-15T12:39:56.638Z,7.98
2017-12-15T12:40:56.636Z,7.93
2017-12-15T12:41:56.929Z,7.9
2017-12-15T12:42:56.624Z,7.91
2017-12-15T12:43:56.623Z,7.95
2017-12-15T12:44:56.620Z,7.87
2017-12-15T12:45:56.618Z,7.88
2017-12-15T12:46:56.366Z,7.8
2017-12-15T12:47:56.352Z,7.82
2017-12-15T12:48:56.855Z,7.76
2017-12-15T12:49:56.853Z,7.7
2017-12-15T12:50:56.860Z,7.66
2017-12-15T12:51:56.613Z,7.67
2017-12-15T12:52:56.845Z,7.57
2017-12-15T12:53:56.584Z,7.47
2017-12-15T12:54:56.830Z,7.43
2017-12-15T12:55:56.840Z,7.35
2017-12-15T12:56:56.567Z,7.32
2017-12-15T12:57:56.833Z,7.33
2017-12-15T12:58:56.833Z,7.29
2017-12-15T12:59:56.815Z,7.29
2017-12-15T13:00:56.556Z,7.21
2017-12-15T13:01:56.812Z,7.24
2017-12-15T13:02:56.539Z,7.17
2017-12-15T13:03:56.791Z,7.13
2017-12-15T13:04:56.529Z,7.15
2017-12-15T13:05:56.778Z,7.11
2017-12-15T13:06:56.785Z,7.05
2017-12-15T13:07:56.513Z,7.11
2017-12-15T13:09:00.874Z,7.1
2017-12-15T13:09:56.757Z,7.14
2017-12-15T13:10:56.759Z,7.21
2017-12-15T13:11:56.765Z,7.13
2017-12-15T13:12:56.499Z,7.17
2017-12-15T13:13:56.755Z,7.17
2017-12-15T13:14:56.735Z,7.15
2017-12-15T13:15:56.496Z,7.29
2017-12-15T13:16:56.476Z,7.32
2017-12-15T13:17:56.467Z,7.2
2017-12-15T13:18:56.462Z,7.28
2017-12-15T13:19:56.759Z,7.28
2017-12-15T13:20:56.707Z,7.31
2017-12-15T13:21:56.468Z,7.32
2017-12-15T13:22:56.700Z,7.29
2017-12-15T13:23:56.695Z,7.36
2017-12-15T13:24:56.691Z,7.39
2017-12-15T13:25:56.704Z,7.38
2017-12-15T13:26:56.429Z,7.53
2017-12-15T13:27:56.676Z,7.57
2017-12-15T13:28:56.423Z,7.6
2017-12-15T13:29:56.671Z,7.69
2017-12-15T13:30:56.661Z,7.7
2017-12-15T13:31:56.664Z,7.76
2017-12-15T13:32:56.404Z,7.75
2017-12-15T13:33:56.408Z,7.82
2017-12-15T13:34:56.650Z,7.77
2017-12-15T13:35:56.648Z,7.83
2017-12-15T13:36:56.388Z,7.85
2017-12-15T13:37:56.396Z,7.85
2017-12-15T13:38:59.441Z,7.85
2017-12-15T13:39:56.638Z,7.8
2017-12-15T13:40:56.624Z,7.85
2017-12-15T13:41:56.366Z,7.8
2017-12-15T13:42:56.112Z,7.94
2017-12-15T13:43:56.361Z,7.9
2017-12-15T13:44:56.616Z,7.8
2017-12-15T13:45:56.351Z,7.91
2017-12-15T13:46:56.604Z,7.82
2017-12-15T13:47:56.600Z,7.91
2017-12-15T13:48:56.591Z,7.91
2017-12-15T13:49:56.589Z,7.95
2017-12-15T13:50:56.593Z,7.87
2017-12-15T13:51:56.608Z,7.82
2017-12-15T13:52:56.086Z,7.83
2017-12-15T13:53:56.576Z,7.83
2017-12-15T13:54:56.567Z,7.8
2017-12-15T13:55:56.565Z,7.76
2017-12-15T13:56:56.567Z,7.83
2017-12-15T13:57:56.555Z,7.91
2017-12-15T13:58:56.551Z,7.85
2017-12-15T13:59:56.549Z,7.79
2017-12-15T14:00:56.608Z,7.77
2017-12-15T14:01:56.538Z,7.8
2017-12-15T14:02:56.288Z,7.77
2017-12-15T14:03:56.534Z,7.73
2017-12-15T14:04:56.273Z,7.75
2017-12-15T14:05:56.268Z,7.7
2017-12-15T14:06:56.523Z,7.72
2017-12-15T14:07:56.532Z,7.73
2017-12-15T14:08:56.263Z,7.45
2017-12-15T14:09:58.357Z,7.33
2017-12-15T14:10:56.251Z,7.06
2017-12-15T14:11:56.497Z,6.85
2017-12-15T14:12:56.489Z,6.75
2017-12-15T14:13:56.480Z,6.62
2017-12-15T14:14:55.985Z,6.59
2017-12-15T14:15:56.476Z,6.57
2017-12-15T14:16:56.473Z,6.46
2017-12-15T14:17:56.466Z,6.48
2017-12-15T14:18:56.459Z,6.42
2017-12-15T14:19:55.956Z,6.22
2017-12-15T14:20:56.196Z,6.12
2017-12-15T14:21:56.200Z,6.17
2017-12-15T14:22:56.185Z,6.02
2017-12-15T14:23:56.438Z,5.97
2017-12-15T14:24:56.178Z,5.87
2017-12-15T14:25:56.424Z,5.89
2017-12-15T14:26:56.415Z,5.87
2017-12-15T14:27:56.473Z,5.98
2017-12-15T14:28:56.150Z,5.89
2017-12-15T14:29:56.148Z,5.82
2017-12-15T14:30:56.397Z,5.83
2017-12-15T14:31:56.129Z,5.76
2017-12-15T14:32:56.382Z,5.62
2017-12-15T14:33:56.373Z,5.68
2017-12-15T14:34:56.116Z,5.65
2017-12-15T14:35:56.366Z,5.54
2017-12-15T14:36:56.353Z,5.56
2017-12-15T14:37:56.377Z,5.54
2017-12-15T14:38:56.096Z,5.54
2017-12-15T14:39:56.588Z,5.56
2017-12-15T14:40:56.328Z,5.51
2017-12-15T14:41:56.068Z,5.57
2017-12-15T14:42:56.320Z,5.66
2017-12-15T14:43:56.067Z,5.66
2017-12-15T14:44:56.065Z,5.64
2017-12-15T14:45:56.302Z,5.53
2017-12-15T14:46:56.292Z,5.62
2017-12-15T14:47:56.035Z,5.62
2017-12-15T14:48:55.827Z,5.65
2017-12-15T14:49:56.269Z,5.59
2017-12-15T14:50:55.771Z,5.54
2017-12-15T14:51:56.258Z,5.62
2017-12-15T14:52:56.257Z,5.61
2017-12-15T14:53:55.739Z,5.57
2017-12-15T14:54:56.243Z,5.65
2017-12-15T14:55:55.985Z,5.53
2017-12-15T14:56:56.231Z,5.61
2017-12-15T14:57:55.971Z,5.56
2017-12-15T14:58:55.969Z,5.57
2017-12-15T14:59:56.277Z,5.61
2017-12-15T15:00:56.213Z,5.5
2017-12-15T15:01:56.194Z,5.53
2017-12-15T15:02:56.190Z,5.54
2017-12-15T15:03:56.195Z,5.54
2017-12-15T15:04:56.242Z,5.51
2017-12-15T15:05:56.170Z,5.56
2017-12-15T15:06:56.161Z,5.57
2017-12-15T15:07:55.905Z,5.5
2017-12-15T15:08:56.147Z,5.48
2017-12-15T15:09:56.163Z,5.53
2017-12-15T15:10:56.144Z,5.41
2017-12-15T15:11:55.624Z,5.41
2017-12-15T15:12:55.872Z,5.46
2017-12-15T15:13:56.118Z,5.47
2017-12-15T15:14:55.864Z,5.38
2017-12-15T15:15:56.132Z,5.39
2017-12-15T15:16:55.846Z,5.36
2017-12-15T15:17:56.087Z,5.29
2017-12-15T15:18:55.836Z,5.25
2017-12-15T15:19:55.824Z,5.25
2017-12-15T15:20:56.068Z,5.28
2017-12-15T15:21:56.202Z,5.23
2017-12-15T15:22:56.067Z,5.25
2017-12-15T15:23:56.051Z,5.12
2017-12-15T15:24:55.791Z,5.15
2017-12-15T15:25:56.840Z,5.17
2017-12-15T15:26:55.791Z,5.1
2017-12-15T15:27:56.020Z,5.1
2017-12-15T15:28:56.018Z,5.07
2017-12-15T15:29:56.006Z,5.05
2017-12-15T15:30:55.749Z,5.05
2017-12-15T15:31:55.744Z,5.05
2017-12-15T15:32:55.983Z,4.94
2017-12-15T15:33:55.472Z,4.97
2017-12-15T15:34:55.967Z,4.92
2017-12-15T15:35:55.991Z,4.89
2017-12-15T15:36:55.956Z,4.9
2017-12-15T15:37:55.950Z,4.96
2017-12-15T15:38:55.696Z,4.92
2017-12-15T15:39:55.705Z,4.86
2017-12-15T15:40:57.546Z,4.86
2017-12-15T15:41:55.927Z,4.75
2017-12-15T15:42:55.920Z,4.78
2017-12-15T15:43:55.401Z,4.75
2017-12-15T15:44:55.646Z,4.77
2017-12-15T15:45:55.396Z,4.78
2017-12-15T15:46:55.914Z,4.68
2017-12-15T15:47:55.878Z,4.67
2017-12-15T15:48:55.617Z,4.6
2017-12-15T15:49:55.606Z,4.56
2017-12-15T15:50:55.876Z,4.53
2017-12-15T15:51:55.595Z,4.45
2017-12-15T15:52:55.591Z,4.49
2017-12-15T15:53:55.598Z,4.41
2017-12-15T15:54:55.828Z,4.4
2017-12-15T15:55:55.866Z,4.35
2017-12-15T15:56:55.822Z,4.31
2017-12-15T15:57:55.550Z,4.22
2017-12-15T15:58:55.796Z,4.17
2017-12-15T15:59:55.788Z,4.19
2017-12-15T16:00:55.787Z,4.1
2017-12-15T16:01:55.535Z,4.1
2017-12-15T16:02:55.767Z,4.01
2017-12-15T16:03:55.506Z,4.04
2017-12-15T16:04:55.550Z,3.94
2017-12-15T16:05:55.503Z,3.94
2017-12-15T16:06:55.736Z,3.83
2017-12-15T16:07:55.493Z,3.86
2017-12-15T16:08:55.739Z,3.92
2017-12-15T16:09:55.719Z,3.77
2017-12-15T16:10:57.517Z,3.86
2017-12-15T16:11:55.452Z,3.84
2017-12-15T16:12:55.434Z,3.83
2017-12-15T16:13:55.432Z,3.76
2017-12-15T16:14:55.672Z,3.7
2017-12-15T16:15:55.416Z,3.78
2017-12-15T16:16:55.672Z,3.73
2017-12-15T16:17:55.153Z,3.62
2017-12-15T16:18:55.644Z,3.74
2017-12-15T16:19:55.637Z,3.69
2017-12-15T16:20:55.626Z,3.63
2017-12-15T16:21:55.368Z,3.69
2017-12-15T16:22:55.367Z,3.58
2017-12-15T16:23:55.606Z,3.6
2017-12-15T16:24:55.594Z,3.65
2017-12-15T16:25:55.340Z,3.7
2017-12-15T16:26:55.326Z,3.66
2017-12-15T16:27:55.315Z,3.7
2017-12-15T16:28:55.317Z,3.74
2017-12-15T16:29:55.557Z,3.66
2017-12-15T16:30:55.297Z,3.7
2017-12-15T16:31:55.538Z,3.74
2017-12-15T16:32:55.536Z,3.77
2017-12-15T16:33:55.531Z,3.6
2017-12-15T16:34:55.261Z,3.66
2017-12-15T16:35:55.258Z,3.68
2017-12-15T16:36:55.245Z,3.63
2017-12-15T16:37:55.235Z,3.7
2017-12-15T16:38:55.234Z,3.7
2017-12-15T16:39:54.968Z,3.76
2017-12-15T16:40:55.227Z,3.66
2017-12-15T16:41:55.481Z,3.74
2017-12-15T16:42:55.446Z,3.63
2017-12-15T16:43:55.206Z,3.65
2017-12-15T16:44:55.185Z,3.6
2017-12-15T16:45:55.178Z,3.56
2017-12-15T16:46:55.178Z,3.62
2017-12-15T16:47:55.159Z,3.59
2017-12-15T16:48:55.398Z,3.63
2017-12-15T16:49:55.388Z,3.62
2017-12-15T16:50:55.133Z,3.63
2017-12-15T16:51:55.389Z,3.74
2017-12-15T16:52:55.133Z,3.78
2017-12-15T16:53:55.354Z,3.69
2017-12-15T16:54:55.124Z,3.7
2017-12-15T16:55:55.337Z,3.78
2017-12-15T16:56:54.836Z,3.77
2017-12-15T16:57:55.333Z,3.84
2017-12-15T16:58:55.079Z,3.74
2017-12-15T16:59:55.304Z,3.86
2017-12-15T17:00:55.294Z,3.76
2017-12-15T17:01:55.298Z,3.69
2017-12-15T17:02:55.092Z,3.74
2017-12-15T17:03:55.278Z,3.65
2017-12-15T17:04:55.262Z,3.66
2017-12-15T17:05:55.261Z,3.62
2017-12-15T17:06:55.007Z,3.62
2017-12-15T17:07:55.255Z,3.65
2017-12-15T17:08:54.978Z,3.59
2017-12-15T17:09:55.232Z,3.48
2017-12-15T17:10:55.230Z,3.48
2017-12-15T17:11:59.510Z,3.51
2017-12-15T17:12:55.208Z,3.59
2017-12-15T17:13:55.200Z,3.55
2017-12-15T17:14:55.180Z,3.45
2017-12-15T17:15:54.675Z,3.51
2017-12-15T17:16:55.178Z,3.59
2017-12-15T17:17:55.182Z,3.5
2017-12-15T17:18:54.903Z,3.53
2017-12-15T17:19:54.895Z,3.58
2017-12-15T17:20:54.919Z,3.59
2017-12-15T17:21:54.866Z,3.58
2017-12-15T17:22:54.861Z,3.48
2017-12-15T17:23:55.115Z,3.51
2017-12-15T17:24:55.110Z,3.45
2017-12-15T17:25:55.099Z,3.59
2017-12-15T17:26:54.849Z,3.55
2017-12-15T17:27:55.078Z,3.44
2017-12-15T17:28:55.068Z,3.56
2017-12-15T17:29:55.152Z,3.56
2017-12-15T17:30:55.099Z,3.63
2017-12-15T17:31:55.041Z,3.65
2017-12-15T17:32:55.039Z,3.76
2017-12-15T17:33:54.767Z,3.76
2017-12-15T17:34:54.778Z,3.78
2017-12-15T17:35:55.006Z,3.86
2017-12-15T17:36:55.008Z,3.8
2017-12-15T17:37:54.993Z,3.98
2017-12-15T17:38:55.049Z,3.91
2017-12-15T17:39:54.798Z,3.98
2017-12-15T17:40:54.966Z,3.98
2017-12-15T17:41:54.710Z,3.99
2017-12-15T17:42:54.967Z,3.98
2017-12-15T17:43:54.749Z,3.88
2017-12-15T17:44:54.682Z,3.91
2017-12-15T17:45:54.507Z,3.83
2017-12-15T17:46:54.916Z,3.78
2017-12-15T17:47:54.399Z,3.98
2017-12-15T17:48:54.652Z,3.96
2017-12-15T17:49:54.632Z,3.98
2017-12-15T17:50:54.887Z,3.96
2017-12-15T17:51:54.881Z,3.86
2017-12-15T17:52:54.868Z,3.94
2017-12-15T17:53:54.863Z,3.83
2017-12-15T17:54:54.850Z,3.84
2017-12-15T17:55:54.325Z,3.86
2017-12-15T17:56:54.823Z,3.88
2017-12-15T17:57:54.636Z,3.81
2017-12-15T17:58:54.584Z,3.86
2017-12-15T17:59:54.800Z,3.78
2017-12-15T18:00:54.854Z,3.84
2017-12-15T18:01:54.794Z,3.84
2017-12-15T18:02:54.785Z,3.92
2017-12-15T18:03:54.833Z,3.86
2017-12-15T18:04:54.765Z,3.86
2017-12-15T18:05:54.757Z,3.83
2017-12-15T18:06:54.745Z,3.87
2017-12-15T18:07:54.737Z,3.96
2017-12-15T18:08:54.482Z,3.99
2017-12-15T18:09:54.468Z,4.04
2017-12-15T18:10:54.530Z,4.2
2017-12-15T18:11:54.791Z,4.22
2017-12-15T18:12:54.962Z,4.22
2017-12-15T18:13:54.689Z,4.24
2017-12-15T18:14:54.438Z,4.23
2017-12-15T18:15:54.167Z,4.24
2017-12-15T18:16:54.158Z,4.32
2017-12-15T18:17:54.655Z,4.34
2017-12-15T18:18:54.396Z,4.35
2017-12-15T18:19:54.638Z,4.37
2017-12-15T18:20:54.383Z,4.37
2017-12-15T18:21:54.628Z,4.3
2017-12-15T18:22:54.360Z,4.3
2017-12-15T18:23:54.100Z,4.32
2017-12-15T18:24:54.610Z,4.28
2017-12-15T18:25:54.332Z,4.23
2017-12-15T18:26:54.577Z,4.17
2017-12-15T18:27:54.066Z,4.2
2017-12-15T18:28:54.558Z,4.2
2017-12-15T18:29:54.560Z,4.16
2017-12-15T18:30:54.299Z,4.12
2017-12-15T18:31:54.536Z,4.12
2017-12-15T18:32:54.275Z,4.05
2017-12-15T18:33:54.023Z,4.04
2017-12-15T18:34:54.534Z,4.05
2017-12-15T18:35:54.255Z,4.13
2017-12-15T18:36:53.997Z,4.04
2017-12-15T18:37:54.493Z,3.99
2017-12-15T18:38:54.479Z,4.02
2017-12-15T18:39:54.472Z,4.08
2017-12-15T18:40:54.218Z,4.06
2017-12-15T18:41:53.956Z,4.02
2017-12-15T18:42:54.513Z,4.02
2017-12-15T18:43:54.191Z,4.04
2017-12-15T18:44:54.180Z,4.04
2017-12-15T18:45:54.424Z,4.04
2017-12-15T18:46:54.161Z,4.05
2017-12-15T18:47:54.162Z,3.98
2017-12-15T18:48:54.413Z,4.06
2017-12-15T18:49:54.139Z,4.05
2017-12-15T18:50:54.384Z,3.95
2017-12-15T18:51:53.919Z,4.04
2017-12-15T18:52:54.116Z,3.95
2017-12-15T18:53:54.359Z,3.88
2017-12-15T18:54:54.123Z,3.8
2017-12-15T18:55:54.102Z,3.87
2017-12-15T18:56:54.158Z,3.94
2017-12-15T18:57:54.076Z,3.84
2017-12-15T18:58:54.110Z,3.83
2017-12-15T18:59:54.066Z,3.98
2017-12-15T19:00:54.055Z,3.84
2017-12-15T19:01:54.286Z,3.91
2017-12-15T19:02:53.770Z,3.8
2017-12-15T19:03:54.024Z,3.78
2017-12-15T19:04:54.278Z,3.88
2017-12-15T19:05:53.761Z,3.84
2017-12-15T19:06:54.049Z,3.81
2017-12-15T19:07:53.988Z,3.76
2017-12-15T19:08:54.231Z,3.7
2017-12-15T19:09:53.711Z,3.86
2017-12-15T19:10:53.956Z,3.78
2017-12-15T19:11:53.959Z,3.8
2017-12-15T19:12:54.202Z,3.76
2017-12-15T19:13:57.130Z,3.73
2017-12-15T19:14:54.178Z,3.77
2017-12-15T19:15:53.969Z,3.68
2017-12-15T19:16:53.922Z,3.73
2017-12-15T19:17:53.892Z,3.65
2017-12-15T19:18:53.886Z,3.6
2017-12-15T19:19:54.142Z,3.7
2017-12-15T19:20:53.865Z,3.66
2017-12-15T19:21:54.114Z,3.69
2017-12-15T19:22:53.848Z,3.59
2017-12-15T19:23:54.091Z,3.69
2017-12-15T19:24:53.835Z,3.63
2017-12-15T19:25:53.830Z,3.68
2017-12-15T19:26:53.880Z,3.59
2017-12-15T19:27:53.828Z,3.58
2017-12-15T19:28:53.803Z,3.58
2017-12-15T19:29:54.056Z,3.58
2017-12-15T19:30:53.785Z,3.63
2017-12-15T19:31:53.530Z,3.58
2017-12-15T19:32:54.031Z,3.58
2017-12-15T19:33:54.026Z,3.62
2017-12-15T19:34:53.767Z,3.65
2017-12-15T19:35:53.993Z,3.63
2017-12-15T19:36:53.737Z,3.7
2017-12-15T19:37:53.743Z,3.78
2017-12-15T19:38:53.981Z,3.73
2017-12-15T19:39:53.954Z,3.76
2017-12-15T19:40:53.952Z,3.86
2017-12-15T19:41:53.682Z,3.8
2017-12-15T19:42:53.684Z,3.87
2017-12-15T19:43:53.678Z,3.81
2017-12-15T19:44:53.662Z,3.8
2017-12-15T19:45:53.732Z,3.87
2017-12-15T19:46:53.909Z,3.84
2017-12-15T19:47:53.673Z,3.86
2017-12-15T19:48:53.633Z,3.81
2017-12-15T19:49:53.873Z,3.81
2017-12-15T19:50:53.602Z,3.84
2017-12-15T19:51:53.604Z,3.87
2017-12-15T19:52:53.347Z,3.76
2017-12-15T19:53:53.855Z,3.74
2017-12-15T19:54:53.830Z,3.84
2017-12-15T19:55:53.598Z,3.74
2017-12-15T19:56:53.586Z,3.87
2017-12-15T19:57:53.811Z,3.78
2017-12-15T19:58:53.843Z,3.83
2017-12-15T19:59:53.782Z,3.77
2017-12-15T20:00:53.552Z,3.83
2017-12-15T20:01:53.788Z,3.83
2017-12-15T20:02:53.533Z,3.86
2017-12-15T20:03:53.764Z,3.91
2017-12-15T20:04:53.258Z,3.81
2017-12-15T20:05:53.754Z,3.83
2017-12-15T20:06:53.766Z,4.04
2017-12-15T20:07:53.713Z,4.02
2017-12-15T20:08:53.715Z,4.02
2017-12-15T20:09:53.447Z,4.05
2017-12-15T20:10:53.718Z,4.04
2017-12-15T20:11:53.701Z,4.05
2017-12-15T20:12:53.675Z,4.1
2017-12-15T20:13:53.161Z,4.05
2017-12-15T20:14:54.982Z,4.04
2017-12-15T20:15:53.147Z,3.92
2017-12-15T20:16:53.647Z,3.98
2017-12-15T20:17:53.616Z,4.02
2017-12-15T20:18:53.607Z,4.06
2017-12-15T20:19:53.362Z,4.1
2017-12-15T20:20:53.612Z,4.19
2017-12-15T20:21:53.347Z,4.19
2017-12-15T20:22:53.602Z,4.19
2017-12-15T20:23:53.598Z,4.23
2017-12-15T20:24:53.586Z,4.08
2017-12-15T20:25:53.585Z,4.12
2017-12-15T20:26:53.306Z,4.05
2017-12-15T20:27:53.296Z,3.99
2017-12-15T20:28:53.571Z,4.06
2017-12-15T20:29:54.094Z,4.04
2017-12-15T20:30:53.552Z,3.96
2017-12-15T20:31:53.496Z,3.86
2017-12-15T20:32:53.250Z,3.88
2017-12-15T20:33:53.501Z,3.91
2017-12-15T20:34:53.247Z,3.86
2017-12-15T20:35:53.224Z,3.92
2017-12-15T20:36:53.204Z,3.86
2017-12-15T20:37:53.475Z,3.76
2017-12-15T20:38:53.478Z,3.76
2017-12-15T20:39:53.176Z,3.86
2017-12-15T20:40:52.937Z,3.77
2017-12-15T20:41:53.417Z,3.69
2017-12-15T20:42:53.186Z,3.65
2017-12-15T20:43:53.417Z,3.59
2017-12-15T20:44:53.154Z,3.51
2017-12-15T20:45:53.403Z,3.48
2017-12-15T20:46:53.142Z,3.45
2017-12-15T20:47:53.161Z,3.42
2017-12-15T20:48:52.842Z,3.42
2017-12-15T20:49:53.346Z,3.45
2017-12-15T20:50:53.080Z,3.5
2017-12-15T20:51:53.367Z,3.51
2017-12-15T20:52:53.076Z,3.58
2017-12-15T20:53:53.331Z,3.6
2017-12-15T20:54:53.298Z,3.6
2017-12-15T20:55:52.810Z,3.58
2017-12-15T20:56:53.064Z,3.63
2017-12-15T20:57:53.309Z,3.7
2017-12-15T20:58:52.771Z,3.62
2017-12-15T20:59:52.789Z,3.68
2017-12-15T21:00:52.750Z,3.76
2017-12-15T21:01:53.032Z,3.7
2017-12-15T21:02:53.247Z,3.74
2017-12-15T21:03:53.216Z,3.69
2017-12-15T21:04:53.246Z,3.69
2017-12-15T21:05:53.255Z,3.69
2017-12-15T21:06:52.956Z,3.68
2017-12-15T21:07:52.945Z,3.65
2017-12-15T21:08:52.922Z,3.55
2017-12-15T21:09:53.228Z,3.62
2017-12-15T21:10:53.188Z,3.48
2017-12-15T21:11:53.189Z,3.59
2017-12-15T21:12:52.911Z,3.47
2017-12-15T21:13:53.170Z,3.5
2017-12-15T21:14:52.920Z,3.51
2017-12-15T21:15:52.895Z,3.51
2017-12-15T21:16:52.615Z,3.51
2017-12-15T21:17:53.135Z,3.5
2017-12-15T21:18:53.129Z,3.53
2017-12-15T21:19:52.824Z,3.51
2017-12-15T21:20:52.827Z,3.55
2017-12-15T21:21:52.842Z,3.6
2017-12-15T21:22:52.833Z,3.56
2017-12-15T21:23:53.056Z,3.59
2017-12-15T21:24:53.123Z,3.63
2017-12-15T21:25:52.817Z,3.62
2017-12-15T21:26:52.814Z,3.56
2017-12-15T21:27:53.028Z,3.63
2017-12-15T21:28:53.017Z,3.66
2017-12-15T21:29:52.771Z,3.65
2017-12-15T21:30:53.069Z,3.74
2017-12-15T21:31:53.008Z,3.86
2017-12-15T21:32:52.767Z,3.91
2017-12-15T21:33:53.019Z,3.86
2017-12-15T21:34:52.968Z,3.88
2017-12-15T21:35:52.958Z,3.94
2017-12-15T21:36:52.716Z,4.04
2017-12-15T21:37:52.432Z,4.05
2017-12-15T21:38:52.955Z,4.04
2017-12-15T21:39:52.961Z,4.05
2017-12-15T21:40:52.687Z,4.16
2017-12-15T21:41:52.665Z,4.26
2017-12-15T21:42:52.917Z,4.16
2017-12-15T21:43:52.657Z,4.22
2017-12-15T21:44:52.620Z,4.2
2017-12-15T21:45:53.934Z,4.08
2017-12-15T21:46:52.840Z,4.02
2017-12-15T21:47:52.631Z,4.05
2017-12-15T21:48:52.595Z,4.05
2017-12-15T21:49:52.852Z,4.04
2017-12-15T21:50:52.345Z,3.99
2017-12-15T21:51:52.842Z,4.12
2017-12-15T21:52:52.598Z,4.05
2017-12-15T21:53:52.554Z,4.05
2017-12-15T21:54:52.295Z,4.17
2017-12-15T21:55:52.987Z,4.22
2017-12-15T21:56:52.542Z,4.22
2017-12-15T21:57:52.517Z,4.13
2017-12-15T21:58:52.769Z,4.16
2017-12-15T21:59:52.505Z,4.14
2017-12-15T22:00:52.779Z,4.17
2017-12-15T22:01:52.501Z,4.19
2017-12-15T22:02:52.726Z,4.23
2017-12-15T22:03:52.760Z,4.19
2017-12-15T22:04:52.465Z,4.13
2017-12-15T22:05:52.479Z,4.23
2017-12-15T22:06:52.704Z,4.19
2017-12-15T22:07:52.704Z,4.19
2017-12-15T22:08:52.418Z,4.14
2017-12-15T22:09:52.449Z,4.16
2017-12-15T22:10:52.662Z,4.14
2017-12-15T22:11:52.671Z,4.19
2017-12-15T22:12:52.668Z,4.22
2017-12-15T22:13:52.367Z,4.19
2017-12-15T22:14:52.381Z,4.2
2017-12-15T22:15:53.550Z,4.16
2017-12-15T22:16:52.628Z,4.19
2017-12-15T22:17:52.366Z,4.16
2017-12-15T22:18:52.589Z,4.1
2017-12-15T22:19:52.617Z,4.2
2017-12-15T22:20:52.592Z,4.08
2017-12-15T22:21:52.331Z,4.08
2017-12-15T22:22:52.579Z,4.08
2017-12-15T22:23:52.315Z,4.1
2017-12-15T22:24:52.288Z,4.19
2017-12-15T22:25:52.574Z,4.19
2017-12-15T22:26:52.537Z,4.2
2017-12-15T22:27:52.268Z,4.17
2017-12-15T22:28:52.535Z,4.23
2017-12-15T22:29:52.519Z,4.12
2017-12-15T22:30:52.504Z,4.19
2017-12-15T22:31:52.480Z,4.23
2017-12-15T22:32:51.955Z,4.24
2017-12-15T22:33:51.979Z,4.23